Time;durP1;ratioP1;P1;durP2;ratioP2;P2;SDS_P1;SDS_P2;PMS_P1;PMS_P2;Temp;Humidity;BMP_temperature;BMP_pressure;BME280_temperature;BME280_humidity;BME280_pressure;Samples;Min_cycle;Max_cycle;Signal;HPM_P1;HPM_P2
2022/06/13 00:00:23;;;;;;;0.65;0.30;;;13.40;99.90;;;;;;5045545;28;20076;-76
2022/06/13 00:02:48;;;;;;;0.40;0.30;;;13.50;99.90;;;;;;5048455;28;20017;-76
2022/06/13 00:05:15;;;;;;;0.45;0.20;;;13.50;99.90;;;;;;5045410;28;20025;-76
2022/06/13 00:07:41;;;;;;;0.85;0.30;;;13.50;99.90;;;;;;5044339;28;20444;-75
2022/06/13 00:10:08;;;;;;;0.80;0.30;;;13.40;99.90;;;;;;5056620;28;20445;-75
2022/06/13 00:12:35;;;;;;;0.95;0.30;;;13.40;99.90;;;;;;5051534;28;20404;-75
2022/06/13 00:15:02;;;;;;;1.23;0.65;;;13.50;99.90;;;;;;5045012;28;20036;-75
2022/06/13 00:17:27;;;;;;;0.47;0.30;;;13.40;99.90;;;;;;5047173;28;20124;-75
2022/06/13 00:19:53;;;;;;;0.70;0.25;;;13.50;99.90;;;;;;5050724;28;20096;-75
2022/06/13 00:22:19;;;;;;;0.82;0.30;;;13.50;99.90;;;;;;5045842;28;20491;-74
2022/06/13 00:24:45;;;;;;;0.75;0.30;;;13.50;99.90;;;;;;5040713;28;20032;-75
2022/06/13 00:27:11;;;;;;;0.60;0.30;;;13.50;99.90;;;;;;5052070;28;20052;-75
2022/06/13 00:29:38;;;;;;;0.55;0.22;;;13.50;99.90;;;;;;5042358;28;20049;-75
2022/06/13 00:32:04;;;;;;;0.57;0.22;;;13.40;99.90;;;;;;5044436;28;20534;-75
2022/06/13 00:34:30;;;;;;;0.57;0.28;;;13.50;99.90;;;;;;5038986;28;20038;-75
2022/06/13 00:36:55;;;;;;;0.32;0.20;;;13.50;99.90;;;;;;5039534;28;20029;-75
2022/06/13 00:39:21;;;;;;;0.22;0.20;;;13.40;99.90;;;;;;5042426;28;20041;-75
2022/06/13 00:41:47;;;;;;;0.73;0.38;;;13.50;99.90;;;;;;5048831;28;20080;-75
2022/06/13 00:44:33;;;;;;;0.68;0.25;;;13.50;99.90;;;;;;5044500;28;20450;-75
2022/06/13 00:46:59;;;;;;;0.30;0.20;;;13.50;99.90;;;;;;5041611;28;20033;-75
2022/06/13 00:49:40;;;;;;;0.30;0.20;;;13.50;99.90;;;;;;5038974;28;20449;-75
2022/06/13 00:52:34;;;;;;;0.20;0.20;;;13.50;99.90;;;;;;5053174;28;20112;-75
2022/06/13 00:55:00;;;;;;;1.23;0.45;;;13.40;99.90;;;;;;5053342;28;20051;-75
2022/06/13 00:57:29;;;;;;;0.20;0.20;;;13.50;99.90;;;;;;5047520;28;20029;-75
2022/06/13 01:00:04;;;;;;;0.60;0.28;;;13.50;99.90;;;;;;5038501;28;20049;-75
2022/06/13 01:02:30;;;;;;;0.73;0.32;;;13.40;99.90;;;;;;5044994;28;20038;-75
2022/06/13 01:04:58;;;;;;;0.30;0.20;;;13.40;99.90;;;;;;5053664;28;20029;-75
2022/06/13 01:07:24;;;;;;;1.00;0.50;;;13.40;99.90;;;;;;5053357;28;20124;-75
2022/06/13 01:12:37;;;;;;;0.57;0.20;;;13.50;99.90;;;;;;5042454;28;20040;-75
2022/06/13 01:15:06;;;;;;;0.47;0.30;;;13.40;99.90;;;;;;5045078;28;20101;-75
2022/06/13 01:17:40;;;;;;;0.32;0.20;;;13.40;99.90;;;;;;5058373;28;20058;-75
2022/06/13 01:20:38;;;;;;;1.55;0.52;;;13.40;99.90;;;;;;5041000;28;20033;-75
2022/06/13 01:23:21;;;;;;;0.47;0.20;;;13.40;99.90;;;;;;5044432;28;20064;-75
2022/06/13 01:26:08;;;;;;;0.43;0.20;;;13.40;99.90;;;;;;5044624;28;20025;-75
2022/06/13 01:28:46;;;;;;;0.20;0.20;;;13.30;99.90;;;;;;5044271;28;20025;-75
2022/06/13 01:31:41;;;;;;;1.45;0.82;;;13.30;99.90;;;;;;5042747;28;20533;-75
2022/06/13 01:34:25;;;;;;;0.70;0.30;;;13.30;99.90;;;;;;5047374;28;20029;-75
2022/06/13 01:37:00;;;;;;;0.20;0.17;;;13.30;99.90;;;;;;5046131;28;20048;-74
2022/06/13 01:39:29;;;;;;;0.50;0.20;;;13.30;99.90;;;;;;5042102;28;20044;-75
2022/06/13 01:42:26;;;;;;;0.20;0.20;;;13.20;99.90;;;;;;5042030;28;20080;-75
2022/06/13 01:45:03;;;;;;;1.27;0.82;;;13.20;99.90;;;;;;5042146;28;20032;-75
2022/06/13 01:47:41;;;;;;;0.57;0.25;;;13.30;99.90;;;;;;5046928;28;20034;-75
2022/06/13 01:50:12;;;;;;;0.52;0.40;;;13.30;99.90;;;;;;5047711;28;20029;-75
2022/06/13 01:52:57;;;;;;;0.52;0.20;;;13.30;99.90;;;;;;5055385;28;20029;-75
2022/06/13 01:55:39;;;;;;;0.32;0.20;;;13.30;99.90;;;;;;5041354;28;20085;-75
2022/06/13 01:58:08;;;;;;;1.00;0.50;;;13.30;99.90;;;;;;5048265;28;20092;-75
2022/06/13 02:00:35;;;;;;;0.45;0.22;;;13.30;99.90;;;;;;5041710;28;20041;-75
2022/06/13 02:03:17;;;;;;;0.77;0.25;;;13.30;99.90;;;;;;5045669;28;20100;-75
2022/06/13 02:05:50;;;;;;;0.43;0.22;;;13.30;99.90;;;;;;5046759;28;20080;-75
2022/06/13 02:08:21;;;;;;;0.90;0.30;;;13.30;99.90;;;;;;5039463;28;20685;-75
2022/06/13 02:11:01;;;;;;;0.57;0.22;;;13.30;99.90;;;;;;5042496;28;20025;-75
2022/06/13 02:14:09;;;;;;;0.85;0.45;;;13.30;99.90;;;;;;5046135;28;20029;-75
2022/06/13 02:16:51;;;;;;;0.28;0.20;;;13.30;99.90;;;;;;5038920;28;20040;-75
2022/06/13 02:19:20;;;;;;;0.35;0.20;;;13.40;99.90;;;;;;5043864;28;20030;-75
2022/06/13 02:21:58;;;;;;;0.43;0.20;;;13.30;99.90;;;;;;5043609;28;20040;-75
2022/06/13 02:24:31;;;;;;;0.43;0.20;;;13.30;99.90;;;;;;5051409;28;20055;-75
2022/06/13 02:27:01;;;;;;;0.20;0.20;;;13.30;99.90;;;;;;5041168;28;20029;-75
2022/06/13 02:29:32;;;;;;;0.38;0.20;;;13.20;99.90;;;;;;5049679;28;20045;-75
2022/06/13 02:31:58;;;;;;;0.70;0.30;;;13.20;99.90;;;;;;5052843;28;20063;-75
2022/06/13 02:34:32;;;;;;;0.38;0.20;;;13.20;99.90;;;;;;5042619;28;20021;-76
2022/06/13 02:37:16;;;;;;;0.88;0.45;;;13.10;99.90;;;;;;5037878;28;20025;-75
2022/06/13 02:39:55;;;;;;;0.52;0.20;;;13.00;99.90;;;;;;5045056;28;20032;-75
2022/06/13 02:42:26;;;;;;;0.10;0.10;;;13.00;99.90;;;;;;5048628;28;20216;-75
2022/06/13 02:45:01;;;;;;;0.73;0.30;;;13.00;99.90;;;;;;5047020;28;20033;-75
2022/06/13 02:47:34;;;;;;;0.38;0.20;;;13.00;99.90;;;;;;5042174;28;20032;-75
2022/06/13 02:50:12;;;;;;;0.75;0.30;;;13.00;99.90;;;;;;5043182;28;20084;-75
2022/06/13 02:53:00;;;;;;;0.80;0.55;;;13.00;99.90;;;;;;5050315;28;20065;-75
2022/06/13 02:55:40;;;;;;;1.55;0.38;;;13.00;99.90;;;;;;5048158;28;20036;-75
2022/06/13 02:58:16;;;;;;;0.47;0.30;;;13.00;99.90;;;;;;5052305;28;20079;-75
2022/06/13 03:01:01;;;;;;;0.70;0.38;;;13.10;99.90;;;;;;5044834;28;20057;-76
2022/06/13 03:03:48;;;;;;;0.65;0.30;;;13.10;99.90;;;;;;5044370;28;20041;-75
2022/06/13 03:06:23;;;;;;;0.75;0.50;;;13.00;99.90;;;;;;5040101;28;20037;-75
2022/06/13 03:08:58;;;;;;;0.38;0.20;;;13.10;99.90;;;;;;5039980;28;20048;-74
2022/06/13 03:12:18;;;;;;;0.10;0.10;;;13.00;99.90;;;;;;5048210;28;20033;-74
2022/06/13 03:15:00;;;;;;;0.20;0.20;;;13.10;99.90;;;;;;5017858;28;20026;-75
2022/06/13 03:17:39;;;;;;;0.50;0.28;;;13.10;99.90;;;;;;5054346;28;20048;-75
2022/06/13 03:20:10;;;;;;;0.52;0.25;;;13.10;99.90;;;;;;5056705;28;20048;-75
2022/06/13 03:22:50;;;;;;;0.75;0.30;;;13.10;99.90;;;;;;5044485;28;20037;-75
2022/06/13 03:25:37;;;;;;;0.20;0.20;;;13.20;99.90;;;;;;5046384;28;20071;-75
2022/06/13 03:28:09;;;;;;;0.50;0.20;;;13.20;99.90;;;;;;5045731;28;20128;-75
2022/06/13 03:30:42;;;;;;;0.68;0.30;;;13.20;99.90;;;;;;5047278;28;20048;-75
2022/06/13 03:36:05;;;;;;;1.55;0.50;;;13.20;99.90;;;;;;5046190;28;20108;-75
2022/06/13 03:38:39;;;;;;;0.28;0.20;;;13.20;99.90;;;;;;5041389;28;20064;-75
2022/06/13 03:41:06;;;;;;;0.47;0.20;;;13.20;99.90;;;;;;5038262;28;20034;-75
2022/06/13 03:43:41;;;;;;;0.50;0.20;;;13.30;99.90;;;;;;5039241;28;20358;-75
2022/06/13 03:46:26;;;;;;;1.20;0.32;;;13.30;99.90;;;;;;5041786;28;20490;-75
2022/06/13 03:49:08;;;;;;;1.25;0.43;;;13.30;99.90;;;;;;5037647;28;20018;-75
2022/06/13 03:51:40;;;;;;;;;;;13.40;99.90;;;;;;5052479;28;20029;-75
2022/06/13 03:54:20;;;;;;;0.70;0.30;;;13.40;99.90;;;;;;5041753;28;19921;-75
2022/06/13 03:56:49;;;;;;;0.57;0.22;;;13.50;99.90;;;;;;5046123;28;20036;-75
2022/06/13 03:59:25;;;;;;;0.20;0.20;;;13.50;99.90;;;;;;5052046;28;20021;-75
2022/06/13 04:02:09;;;;;;;0.50;0.30;;;13.50;99.90;;;;;;5048072;28;20108;-75
2022/06/13 04:04:46;;;;;;;0.57;0.30;;;13.50;99.90;;;;;;5040977;28;22045;-76
2022/06/13 04:07:13;;;;;;;0.35;0.22;;;13.50;99.90;;;;;;5042765;28;20518;-75
2022/06/13 04:09:47;;;;;;;0.47;0.22;;;13.50;99.90;;;;;;5043115;28;20259;-75
2022/06/13 04:12:58;;;;;;;0.10;0.10;;;13.50;99.90;;;;;;5033885;28;20029;-76
2022/06/13 04:15:32;;;;;;;0.20;0.20;;;13.60;99.90;;;;;;5026947;28;20065;-75
2022/06/13 04:18:19;;;;;;;0.57;0.22;;;13.60;99.90;;;;;;5042266;28;20033;-75
2022/06/13 04:21:03;;;;;;;0.35;0.20;;;13.60;99.90;;;;;;5046444;28;20079;-75
2022/06/13 04:23:47;;;;;;;0.57;0.30;;;13.60;99.90;;;;;;5047926;28;20055;-75
2022/06/13 04:26:48;;;;;;;0.28;0.20;;;13.60;99.90;;;;;;5038255;28;20163;-69
2022/06/13 04:29:34;;;;;;;1.52;0.90;;;13.60;99.90;;;;;;5047646;28;20091;-75
2022/06/13 04:32:04;;;;;;;0.52;0.38;;;13.70;99.90;;;;;;5041960;28;20083;-75
2022/06/13 04:34:35;;;;;;;0.45;0.20;;;13.80;99.90;;;;;;5046536;28;20022;-75
2022/06/13 04:37:03;;;;;;;1.38;0.47;;;13.90;99.90;;;;;;5044103;28;20045;-76
2022/06/13 04:39:33;;;;;;;1.92;0.68;;;13.90;99.90;;;;;;5033051;28;20033;-76
2022/06/13 04:42:02;;;;;;;0.75;0.40;;;13.90;99.90;;;;;;5043518;28;20418;-75
2022/06/13 04:44:31;;;;;;;0.55;0.20;;;14.10;99.90;;;;;;5052649;28;20028;-75
2022/06/13 04:46:58;;;;;;;0.57;0.30;;;14.10;99.90;;;;;;5045469;28;20033;-75
2022/06/13 04:49:44;;;;;;;0.35;0.20;;;14.20;99.90;;;;;;5033624;28;20059;-75
2022/06/13 04:52:15;;;;;;;0.63;0.40;;;14.30;99.90;;;;;;5050550;28;20025;-75
2022/06/13 04:54:59;;;;;;;0.47;0.20;;;14.30;99.90;;;;;;5044065;28;20028;-76
2022/06/13 04:57:26;;;;;;;0.60;0.22;;;14.40;99.90;;;;;;5049127;28;20029;-76
2022/06/13 04:59:52;;;;;;;0.22;0.17;;;14.50;99.90;;;;;;5040046;28;20125;-76
2022/06/13 05:02:22;;;;;;;0.22;0.20;;;14.60;99.90;;;;;;5052761;28;20029;-76
2022/06/13 05:04:48;;;;;;;0.47;0.20;;;14.70;99.90;;;;;;5043960;28;20394;-75
2022/06/13 05:07:15;;;;;;;0.73;0.30;;;14.70;99.90;;;;;;5048508;28;20095;-75
2022/06/13 05:09:46;;;;;;;0.20;0.20;;;14.90;99.90;;;;;;5054291;28;20480;-75
2022/06/13 05:12:38;;;;;;;0.40;0.20;;;15.00;99.90;;;;;;5055196;28;20021;-74
2022/06/13 05:15:25;;;;;;;0.57;0.20;;;15.10;99.90;;;;;;5046139;28;20026;-74
2022/06/13 05:18:11;;;;;;;1.02;0.55;;;15.20;99.90;;;;;;5042630;28;20026;-75
2022/06/13 05:20:37;;;;;;;0.45;0.20;;;15.30;99.90;;;;;;5039756;28;20033;-75
2022/06/13 05:23:24;;;;;;;0.38;0.20;;;15.40;99.90;;;;;;5043550;28;20102;-75
2022/06/13 05:25:57;;;;;;;0.28;0.20;;;15.30;99.90;;;;;;5035619;28;20032;-76
2022/06/13 05:28:27;;;;;;;2.30;0.43;;;15.50;99.90;;;;;;5040972;28;20032;-75
2022/06/13 05:30:54;;;;;;;0.98;0.45;;;15.40;99.90;;;;;;5036108;28;20049;-74
2022/06/13 05:33:24;;;;;;;0.55;0.35;;;15.40;99.90;;;;;;5035724;28;20112;-75
2022/06/13 05:35:54;;;;;;;0.30;0.15;;;15.60;99.90;;;;;;5044011;28;20473;-76
2022/06/13 05:38:30;;;;;;;0.88;0.20;;;15.60;99.90;;;;;;5040942;28;20029;-76
2022/06/13 05:40:55;;;;;;;0.60;0.25;;;15.80;99.90;;;;;;5048473;28;20033;-76
2022/06/13 05:43:21;;;;;;;0.55;0.28;;;15.80;99.90;;;;;;5054004;28;20062;-76
2022/06/13 05:45:47;;;;;;;1.85;0.57;;;15.90;99.90;;;;;;5035993;28;20047;-76
2022/06/13 05:48:15;;;;;;;0.85;0.28;;;16.20;99.90;;;;;;5049239;28;20036;-76
2022/06/13 05:50:42;;;;;;;0.50;0.20;;;16.40;99.90;;;;;;5051930;28;20103;-76
2022/06/13 05:53:20;;;;;;;0.60;0.43;;;16.70;99.90;;;;;;5056406;28;20080;-76
2022/06/13 05:55:47;;;;;;;0.17;0.10;;;17.20;99.90;;;;;;5038648;28;20028;-75
2022/06/13 05:58:15;;;;;;;1.23;0.30;;;17.00;99.90;;;;;;5035860;28;20461;-76
2022/06/13 06:00:53;;;;;;;0.43;0.20;;;17.00;99.90;;;;;;5050037;28;20047;-76
2022/06/13 06:03:20;;;;;;;0.47;0.15;;;16.80;99.90;;;;;;5056323;28;20021;-76
2022/06/13 06:05:46;;;;;;;0.75;0.40;;;17.30;99.90;;;;;;5044243;28;20026;-76
2022/06/13 06:08:24;;;;;;;0.98;0.85;;;17.70;99.90;;;;;;5047141;28;20082;-76
2022/06/13 06:10:52;;;;;;;0.45;0.35;;;17.90;99.90;;;;;;5050724;28;20039;-76
2022/06/13 06:13:17;;;;;;;0.17;0.10;;;17.60;99.90;;;;;;5052335;28;20639;-76
2022/06/13 06:15:44;;;;;;;0.32;0.13;;;17.70;99.90;;;;;;5035914;28;20034;-77
2022/06/13 06:18:11;;;;;;;0.63;0.30;;;17.70;99.90;;;;;;5045687;28;20085;-76
2022/06/13 06:20:36;;;;;;;0.17;0.10;;;17.60;99.90;;;;;;5046952;28;20045;-76
2022/06/13 06:23:03;;;;;;;0.38;0.10;;;17.40;99.90;;;;;;5038985;28;20084;-76
2022/06/13 06:25:30;;;;;;;0.30;0.10;;;17.40;99.90;;;;;;5048981;28;20493;-76
2022/06/13 06:27:56;;;;;;;0.52;0.30;;;17.40;99.90;;;;;;5039437;28;20033;-76
2022/06/13 06:30:22;;;;;;;0.35;0.10;;;17.50;99.90;;;;;;5041631;28;20053;-75
2022/06/13 06:32:48;;;;;;;0.77;0.20;;;17.50;99.90;;;;;;5041027;28;20096;-76
2022/06/13 06:35:15;;;;;;;0.43;0.20;;;17.60;99.90;;;;;;5048324;28;20056;-76
2022/06/13 06:37:46;;;;;;;0.57;0.20;;;17.30;99.90;;;;;;5043870;28;20021;-76
2022/06/13 06:40:14;;;;;;;0.77;0.50;;;17.00;99.90;;;;;;5042686;28;20045;-76
2022/06/13 06:42:40;;;;;;;0.63;0.20;;;16.90;99.90;;;;;;5040710;28;20023;-76
2022/06/13 06:45:06;;;;;;;0.38;0.17;;;17.10;99.90;;;;;;5037674;28;20026;-76
2022/06/13 06:47:32;;;;;;;0.70;0.20;;;17.70;99.90;;;;;;5038520;28;20033;-75
2022/06/13 06:49:58;;;;;;;0.15;0.13;;;18.10;99.90;;;;;;5031373;28;20029;-76
2022/06/13 06:52:24;;;;;;;0.65;0.15;;;18.00;99.90;;;;;;5023317;28;20029;-75
2022/06/13 07:00:19;;;;;;;0.10;0.10;;;18.60;99.90;;;;;;5055182;28;20087;-75
2022/06/13 07:02:45;;;;;;;0.45;0.17;;;18.90;99.90;;;;;;5048745;28;20457;-75
2022/06/13 07:05:12;;;;;;;0.20;0.10;;;18.40;99.90;;;;;;5038762;28;20022;-76
2022/06/13 07:07:38;;;;;;;0.28;0.10;;;18.00;99.90;;;;;;5052585;28;20045;-76
2022/06/13 07:10:05;;;;;;;0.40;0.10;;;17.00;99.90;;;;;;5054747;28;20025;-75
2022/06/13 07:12:31;;;;;;;0.75;0.30;;;16.70;99.90;;;;;;5074278;28;20037;-76
2022/06/13 07:14:57;;;;;;;0.52;0.20;;;16.60;99.90;;;;;;5042024;28;20372;-76
2022/06/13 07:17:23;;;;;;;0.47;0.30;;;16.30;99.90;;;;;;5042751;28;20091;-76
2022/06/13 07:19:49;;;;;;;0.10;0.10;;;16.20;99.90;;;;;;5041946;28;20045;-77
2022/06/13 07:22:18;;;;;;;0.73;0.30;;;16.10;99.90;;;;;;5029573;28;20045;-76
2022/06/13 07:24:45;;;;;;;0.47;0.20;;;16.10;99.90;;;;;;5052214;28;20025;-76
2022/06/13 07:27:11;;;;;;;0.68;0.30;;;16.40;99.90;;;;;;5040205;28;20162;-76
2022/06/13 07:29:37;;;;;;;0.30;0.10;;;16.80;99.90;;;;;;5043090;28;20507;-75
2022/06/13 07:32:11;;;;;;;1.45;0.20;;;17.40;99.90;;;;;;5053420;28;20049;-75
2022/06/13 07:34:38;;;;;;;0.20;0.10;;;17.50;99.90;;;;;;5054476;28;20105;-76
2022/06/13 07:37:06;;;;;;;1.15;0.52;;;18.00;99.90;;;;;;5041177;28;20025;-76
2022/06/13 07:39:32;;;;;;;0.45;0.30;;;18.20;99.90;;;;;;5045414;28;20029;-75
2022/06/13 07:41:59;;;;;;;0.40;0.10;;;18.70;99.90;;;;;;5041506;28;20096;-75
2022/06/13 07:44:32;;;;;;;1.65;0.63;;;19.20;99.90;;;;;;5043359;28;20435;-75
2022/06/13 07:46:59;;;;;;;0.10;0.10;;;19.40;99.90;;;;;;5053250;28;20037;-75
2022/06/13 07:49:25;;;;;;;0.80;0.43;;;19.60;99.90;;;;;;5042819;28;20100;-75
2022/06/13 07:51:51;;;;;;;0.55;0.20;;;19.60;99.90;;;;;;5049375;28;20034;-75
2022/06/13 07:54:17;;;;;;;0.52;0.30;;;19.30;99.90;;;;;;5044665;28;20045;-75
2022/06/13 07:56:43;;;;;;;0.10;0.10;;;19.20;99.90;;;;;;5054398;28;20028;-74
2022/06/13 07:59:17;;;;;;;0.75;0.35;;;19.30;99.90;;;;;;5043002;28;20120;-75
2022/06/13 08:01:43;;;;;;;0.10;0.10;;;19.90;99.90;;;;;;5039541;28;20026;-70
2022/06/13 08:04:10;;;;;;;0.90;0.50;;;20.00;99.90;;;;;;5044187;28;20067;-70
2022/06/13 08:06:38;;;;;;;0.35;0.15;;;20.30;99.90;;;;;;5056682;28;20093;-70
2022/06/13 08:09:04;;;;;;;1.00;0.65;;;20.50;99.90;;;;;;5052231;28;20033;-70
2022/06/13 08:11:34;;;;;;;1.85;0.30;;;20.50;99.90;;;;;;5047023;28;20029;-74
2022/06/13 08:14:00;;;;;;;0.73;0.45;;;20.10;99.90;;;;;;5046319;28;20511;-73
2022/06/13 08:16:26;;;;;;;0.00;0.00;;;19.60;99.90;;;;;;5044725;28;20024;-73
2022/06/13 08:18:52;;;;;;;0.10;0.10;;;19.00;99.90;;;;;;5041291;28;20018;-73
2022/06/13 08:21:18;;;;;;;0.28;0.10;;;18.60;99.90;;;;;;5043477;28;20068;-73
2022/06/13 08:23:44;;;;;;;1.00;0.57;;;18.50;99.90;;;;;;5056983;28;20048;-73
2022/06/13 08:26:10;;;;;;;0.08;0.00;;;18.80;99.90;;;;;;5046450;28;20221;-73
2022/06/13 08:28:36;;;;;;;1.17;0.30;;;18.90;99.90;;;;;;5051916;28;20025;-73
2022/06/13 08:31:07;;;;;;;1.02;0.32;;;19.30;99.90;;;;;;5050401;28;20049;-75
2022/06/13 08:33:33;;;;;;;0.45;0.30;;;19.80;99.90;;;;;;5043128;28;20025;-73
2022/06/13 08:35:58;;;;;;;0.10;0.10;;;20.10;99.90;;;;;;5041993;28;20048;-73
2022/06/13 08:38:24;;;;;;;0.38;0.25;;;20.50;99.90;;;;;;5050653;28;20397;-74
2022/06/13 08:41:01;;;;;;;0.85;0.43;;;20.80;99.90;;;;;;5042899;28;20045;-75
2022/06/13 08:44:02;;;;;;;1.35;0.65;;;20.90;99.90;;;;;;5039015;28;20029;-75
2022/06/13 08:46:58;;;;;;;0.20;0.10;;;21.60;99.90;;;;;;5048566;28;20074;-75
2022/06/13 08:49:27;;;;;;;0.38;0.10;;;21.10;99.90;;;;;;5054288;28;20067;-75
2022/06/13 08:52:06;;;;;;;0.50;0.20;;;20.00;99.90;;;;;;5044319;28;20134;-75
2022/06/13 08:54:34;;;;;;;0.10;0.10;;;19.70;99.90;;;;;;5042114;28;20029;-75
2022/06/13 08:57:04;;;;;;;0.93;0.57;;;19.20;99.90;;;;;;5040426;28;20025;-74
2022/06/13 08:59:38;;;;;;;1.55;0.95;;;18.80;99.90;;;;;;5041073;28;20034;-74
2022/06/13 09:02:21;;;;;;;0.68;0.43;;;18.90;99.90;;;;;;5046756;28;20029;-75
2022/06/13 09:05:03;;;;;;;0.10;0.10;;;19.70;99.90;;;;;;5050916;28;20089;-74
2022/06/13 09:08:14;;;;;;;0.10;0.10;;;20.60;99.90;;;;;;5039721;28;20043;-75
2022/06/13 09:10:52;;;;;;;0.20;0.20;;;21.50;99.90;;;;;;5042224;28;20120;-74
2022/06/13 09:13:21;;;;;;;0.32;0.25;;;21.00;99.90;;;;;;5045225;28;20028;-75
2022/06/13 09:15:54;;;;;;;6.50;0.40;;;20.70;99.90;;;;;;5049167;28;20041;-75
2022/06/13 09:18:26;;;;;;;0.13;0.10;;;19.90;98.50;;;;;;5047284;28;20532;-75
2022/06/13 09:20:53;;;;;;;0.10;0.10;;;19.60;99.90;;;;;;5045819;28;20101;-75
2022/06/13 09:23:58;;;;;;;0.55;0.47;;;20.40;99.70;;;;;;5045954;28;20029;-75
2022/06/13 09:26:33;;;;;;;0.55;0.20;;;21.00;95.60;;;;;;5042427;28;20041;-75
2022/06/13 09:29:27;;;;;;;1.02;0.43;;;21.60;99.30;;;;;;5039790;28;20092;-76
2022/06/13 09:32:15;;;;;;;0.47;0.20;;;22.30;93.10;;;;;;5043575;28;20444;-76
2022/06/13 09:34:53;;;;;;;0.38;0.20;;;21.70;68.20;;;;;;5041197;28;20075;-76
2022/06/13 09:37:48;;;;;;;0.17;0.10;;;21.10;79.60;;;;;;5041765;28;20489;-76
2022/06/13 09:40:15;;;;;;;0.65;0.30;;;20.40;90.10;;;;;;5039443;28;20083;-76
2022/06/13 09:43:10;;;;;;;0.20;0.17;;;19.70;99.10;;;;;;5041731;28;20279;-76
2022/06/13 09:45:42;;;;;;;0.20;0.10;;;20.20;99.00;;;;;;5044743;28;20045;-74
2022/06/13 09:48:20;;;;;;;0.40;0.20;;;19.80;95.40;;;;;;5048184;28;20029;-75
2022/06/13 09:51:07;;;;;;;0.45;0.20;;;19.60;96.60;;;;;;5049273;28;20033;-74
2022/06/13 09:53:53;;;;;;;0.10;0.10;;;19.20;97.60;;;;;;5045386;28;20563;-74
2022/06/13 09:56:32;;;;;;;0.47;0.13;;;19.20;96.50;;;;;;5049300;28;20201;-75
2022/06/13 09:59:00;;;;;;;0.30;0.20;;;19.80;99.90;;;;;;5049782;28;20025;-74
2022/06/13 10:01:51;;;;;;;0.10;0.10;;;20.20;97.90;;;;;;5045892;28;20029;-74
2022/06/13 10:04:42;;;;;;;0.57;0.20;;;20.60;91.70;;;;;;5040665;28;20036;-73
2022/06/13 10:07:23;;;;;;;0.30;0.10;;;20.30;90.10;;;;;;5039807;28;20033;-73
2022/06/13 10:10:10;;;;;;;0.22;0.10;;;19.60;96.10;;;;;;5044856;28;20024;-73
2022/06/13 10:12:50;;;;;;;1.27;0.35;;;20.10;90.40;;;;;;5042755;28;20078;-68
2022/06/13 10:15:48;;;;;;;0.10;0.10;;;20.70;86.50;;;;;;5045552;28;20124;-69
2022/06/13 10:18:41;;;;;;;0.38;0.10;;;21.10;81.70;;;;;;5040940;28;20370;-69
2022/06/13 10:21:21;;;;;;;0.10;0.10;;;20.70;88.60;;;;;;5039674;28;20412;-69
2022/06/13 10:23:56;;;;;;;0.10;0.10;;;20.20;96.30;;;;;;5039777;28;20021;-68
2022/06/13 10:26:46;;;;;;;0.08;0.00;;;20.20;98.30;;;;;;5034315;28;20068;-68
2022/06/13 10:30:04;;;;;;;0.95;0.50;;;21.20;92.00;;;;;;5036832;28;20036;-68
2022/06/13 10:33:06;;;;;;;0.10;0.10;;;21.80;83.30;;;;;;5030199;28;20042;-75
2022/06/13 10:35:56;;;;;;;0.00;0.00;;;21.10;92.30;;;;;;5035739;28;20079;-69
2022/06/13 10:38:45;;;;;;;0.10;0.10;;;21.60;70.60;;;;;;5035057;28;20032;-70
2022/06/13 10:41:12;;;;;;;0.45;0.40;;;22.60;72.20;;;;;;5035640;28;20051;-70
2022/06/13 10:43:42;;;;;;;0.22;0.20;;;22.00;66.80;;;;;;5039639;28;20025;-71
2022/06/13 10:46:13;;;;;;;0.00;0.00;;;21.70;78.90;;;;;;5045613;28;20029;-70
2022/06/13 10:48:45;;;;;;;0.03;0.03;;;22.40;84.60;;;;;;5039108;28;20404;-71
2022/06/13 10:51:11;;;;;;;0.30;0.30;;;21.60;66.50;;;;;;5033549;28;20103;-71
2022/06/13 10:53:43;;;;;;;0.43;0.43;;;21.40;85.20;;;;;;5033517;28;20060;-71
2022/06/13 10:56:16;;;;;;;0.00;0.00;;;20.80;83.60;;;;;;5043107;28;20512;-71
2022/06/13 10:58:49;;;;;;;0.00;0.00;;;20.70;83.50;;;;;;5042051;28;20037;-71
2022/06/13 11:01:20;;;;;;;0.35;0.10;;;21.00;93.20;;;;;;5037400;28;20072;-71
2022/06/13 11:04:19;;;;;;;0.10;0.10;;;20.70;99.80;;;;;;5038949;28;20059;-71
2022/06/13 11:06:57;;;;;;;0.65;0.25;;;20.10;99.90;;;;;;5036685;28;20029;-72
2022/06/13 11:09:37;;;;;;;0.35;0.32;;;19.40;99.90;;;;;;5037419;28;20029;-71
2022/06/13 11:12:13;;;;;;;0.17;0.10;;;18.90;99.90;;;;;;5038125;28;20539;-71
2022/06/13 11:23:03;;;;;;;0.17;0.10;;;18.40;99.90;;;;;;5039326;28;20039;-71
2022/06/13 11:25:34;;;;;;;1.55;0.40;;;18.50;99.90;;;;;;5037888;28;20430;-70
2022/06/13 11:28:05;;;;;;;0.45;0.30;;;19.30;99.90;;;;;;5036832;28;20020;-71
2022/06/13 11:30:46;;;;;;;0.10;0.10;;;20.20;99.90;;;;;;5039266;28;20052;-71
2022/06/13 11:33:23;;;;;;;;;;;20.90;99.90;;;;;;5036630;28;20049;-71
2022/06/13 11:35:59;;;;;;;0.35;0.10;;;20.70;98.60;;;;;;5038629;28;19935;-71
2022/06/13 11:38:37;;;;;;;0.98;0.52;;;20.50;97.90;;;;;;5037097;28;20036;-71
2022/06/13 11:41:11;;;;;;;0.80;0.43;;;20.50;98.70;;;;;;5049674;28;20037;-71
2022/06/13 11:43:52;;;;;;;0.10;0.10;;;21.10;99.90;;;;;;5058863;28;20032;-71
2022/06/13 11:46:30;;;;;;;;;;;20.60;97.50;;;;;;5036959;28;20455;-72
2022/06/13 11:49:15;;;;;;;0.10;0.10;;;20.30;96.20;;;;;;5038623;28;19920;-71
2022/06/13 11:51:53;;;;;;;0.28;0.10;;;20.10;99.90;;;;;;5036956;28;20038;-71
2022/06/13 11:54:47;;;;;;;0.17;0.10;;;19.90;98.60;;;;;;5035796;28;20470;-72
2022/06/13 11:57:18;;;;;;;0.00;0.00;;;19.80;99.90;;;;;;5038841;28;20044;-72
2022/06/13 11:59:49;;;;;;;0.65;0.43;;;19.90;99.70;;;;;;5037830;28;20029;-72
2022/06/13 12:02:38;;;;;;;0.03;0.03;;;20.10;99.90;;;;;;5057967;28;20496;-72
2022/06/13 12:05:12;;;;;;;0.10;0.10;;;20.50;98.10;;;;;;5027189;28;20037;-72
2022/06/13 12:07:38;;;;;;;0.15;0.10;;;20.10;98.30;;;;;;5036252;28;20128;-72
2022/06/13 12:10:17;;;;;;;0.93;0.30;;;20.20;99.30;;;;;;5038424;28;20056;-72
2022/06/13 12:12:45;;;;;;;1.38;0.50;;;19.80;99.90;;;;;;5036207;28;20053;-72
2022/06/13 12:15:13;;;;;;;0.30;0.30;;;19.90;99.90;;;;;;5037770;28;20032;-72
2022/06/13 12:17:45;;;;;;;5.05;0.30;;;20.40;99.90;;;;;;5038725;28;20030;-72
2022/06/13 12:20:32;;;;;;;0.28;0.10;;;20.90;97.40;;;;;;5034962;28;20060;-72
2022/06/13 12:23:08;;;;;;;0.10;0.10;;;20.90;99.60;;;;;;5039926;28;20021;-72
2022/06/13 12:25:53;;;;;;;0.10;0.10;;;20.30;79.70;;;;;;5036739;28;20048;-69
2022/06/13 12:28:21;;;;;;;0.25;0.15;;;20.20;96.40;;;;;;5035851;28;20026;-69
2022/06/13 12:31:02;;;;;;;0.10;0.10;;;20.00;97.40;;;;;;5036400;28;20050;-70
2022/06/13 12:33:50;;;;;;;1.35;0.52;;;20.10;99.40;;;;;;5055698;28;20051;-71
2022/06/13 12:36:33;;;;;;;0.28;0.20;;;21.00;99.90;;;;;;5060038;28;20033;-71
2022/06/13 12:39:26;;;;;;;0.30;0.20;;;21.70;91.20;;;;;;5060057;28;20025;-72
2022/06/13 12:41:56;;;;;;;0.47;0.30;;;21.10;78.00;;;;;;5042358;28;20086;-72
2022/06/13 12:44:43;;;;;;;0.10;0.10;;;20.80;88.70;;;;;;5040538;28;20025;-71
2022/06/13 12:47:55;;;;;;;0.00;0.00;;;20.40;80.10;;;;;;5040335;28;20033;-71
2022/06/13 12:50:36;;;;;;;0.15;0.10;;;20.00;94.20;;;;;;5039029;28;20033;-71
2022/06/13 12:53:11;;;;;;;0.30;0.30;;;19.60;95.00;;;;;;5040846;28;20041;-71
2022/06/13 12:56:01;;;;;;;0.47;0.20;;;19.10;99.90;;;;;;5048502;28;20300;-71
2022/06/13 12:58:45;;;;;;;0.30;0.10;;;19.50;99.90;;;;;;5056689;28;20025;-71
2022/06/13 13:01:11;;;;;;;0.15;0.10;;;19.60;99.90;;;;;;5051178;28;20044;-72
2022/06/13 13:03:45;;;;;;;0.70;0.63;;;19.30;93.80;;;;;;5037897;28;20120;-71
2022/06/13 13:06:18;;;;;;;0.80;0.52;;;19.40;98.50;;;;;;5040813;28;20089;-71
2022/06/13 13:09:20;;;;;;;0.10;0.10;;;19.70;99.90;;;;;;5040118;28;20041;-71
2022/06/13 13:11:52;;;;;;;0.28;0.20;;;20.10;99.90;;;;;;5042176;28;20021;-73
2022/06/13 13:14:54;;;;;;;0.35;0.22;;;20.10;99.90;;;;;;5044467;28;21844;-72
2022/06/13 13:17:28;;;;;;;0.38;0.15;;;20.70;99.30;;;;;;5007160;28;20041;-72
2022/06/13 13:20:11;;;;;;;0.35;0.10;;;21.20;98.20;;;;;;5040146;28;20389;-72
2022/06/13 13:22:56;;;;;;;0.28;0.10;;;21.30;98.20;;;;;;5051836;28;20035;-72
2022/06/13 13:25:52;;;;;;;0.38;0.10;;;20.60;92.50;;;;;;5040096;28;20033;-73
2022/06/13 13:28:26;;;;;;;0.52;0.20;;;20.60;84.70;;;;;;5038720;28;20033;-72
2022/06/13 13:31:11;;;;;;;0.30;0.15;;;20.20;90.90;;;;;;5046059;28;20049;-72
2022/06/13 13:34:05;;;;;;;0.10;0.10;;;20.10;90.80;;;;;;5050444;28;20049;-72
2022/06/13 13:36:57;;;;;;;0.43;0.25;;;20.10;92.20;;;;;;5039714;28;20033;-73
2022/06/13 13:39:43;;;;;;;0.35;0.15;;;20.40;92.60;;;;;;5039194;28;20029;-73
2022/06/13 13:42:18;;;;;;;0.45;0.13;;;21.00;91.70;;;;;;5038758;28;20029;-72
2022/06/13 13:44:56;;;;;;;4.35;0.40;;;21.40;82.00;;;;;;5039116;28;20026;-72
2022/06/13 13:47:23;;;;;;;3.00;1.45;;;21.10;73.10;;;;;;5040330;28;20029;-73
2022/06/13 13:49:54;;;;;;;0.35;0.17;;;21.90;72.50;;;;;;5038026;28;20030;-73